Seiwamaru — JG5074 — position and weather

sailwx.info

Track history (hours):
 
Tides and Currents Weather Stations Pressure Air Temp Water Temp Dewpoint Dewpoint Depression Visibility Wind Speed Wind Dir Waves Ship Positions

Seiwamaru

Last reported at 2018-Jul-16 04:15 UTC. Time now 2018-Jul-16 04:34 UTC.
Position N 34°55' E 139°14'.

Length 59 m; draft 3.8 m.

Type: Tanker. MMSI: 431100283.

Date/timePositionNaut miles runAvg speedWind from/ knotsBaromVisibWave heightAir tempDewpointWater temp
2018-Jul-16 04:15N 34°55' E 139°14'12 9.8
2018-Jul-16 03:02N 35°01' E 139°26'110.5
2018-Jul-16 02:57N 35°02' E 139°27'4 9.9
2018-Jul-16 02:31N 35°04' E 139°32'510.5
2018-Jul-16 02:00N 35°06' E 139°38'611.5
2018-Jul-16 01:30N 35°09' E 139°43'611.8
2018-Jul-16 01:01N 35°15' E 139°46'612.4
2018-Jul-16 00:31N 35°20' E 139°42'612.3
2018-Jul-16 00:00N 35°26' E 139°43'3 6.9
2018-Jul-15 23:30N 35°29' E 139°41'0 0.0
2018-Jul-15 23:01N 35°29' E 139°41'0 0.0
2018-Jul-15 22:30N 35°29' E 139°41'0 0.0
2018-Jul-15 22:01N 35°29' E 139°41'0 0.0
2018-Jul-15 21:30N 35°29' E 139°41'0 0.0
2018-Jul-15 21:00N 35°29' E 139°41'1 1.6
2018-Jul-15 20:31N 35°29' E 139°41'3 5.4
2018-Jul-15 20:01N 35°27' E 139°43'3 5.1
2018-Jul-15 19:31N 35°25' E 139°45'0 0.0
2018-Jul-15 19:00N 35°25' E 139°45'0 0.0
2018-Jul-15 18:31N 35°25' E 139°45'0 0.0
2018-Jul-15 18:00N 35°25' E 139°45'0 0.0
2018-Jul-15 17:31N 35°25' E 139°45'2 3.7
2018-Jul-15 17:01N 35°23' E 139°45'510.9
2018-Jul-15 16:31N 35°17' E 139°45'611.2
2018-Jul-15 16:00N 35°12' E 139°47'611.6
2018-Jul-15 15:31N 35°07' E 139°44'611.1
2018-Jul-15 15:01N 35°02' E 139°40'612.1
2018-Jul-15 14:30N 34°58' E 139°34'  
2018-Jul-11 18:15N 34°24' E 134°18'511.3
2018-Jul-11 17:48N 34°22' E 134°23'311.2
2018-Jul-11 17:30N 34°20' E 134°27'1410.3
2018-Jul-11 16:11N 34°14' E 134°41'0 1.4
2018-Jul-11 15:58N 34°14' E 134°42'0 0.0
2018-Jul-11 15:26N 34°14' E 134°42'0 0.0
2018-Jul-11 14:59N 34°14' E 134°42'0 0.0
2018-Jul-11 14:24N 34°14' E 134°42'0 0.0
2018-Jul-11 13:49N 34°14' E 134°42'0 0.0
2018-Jul-11 13:21N 34°14' E 134°42'9 6.6
2018-Jul-11 12:02N 34°06' E 134°46'211.6
2018-Jul-11 11:54N 34°05' E 134°47'611.9
2018-Jul-11 11:21N 33°60' E 134°52'411.6
2018-Jul-11 11:00N 33°57' E 134°55'711.4
2018-Jul-11 10:23N 33°52' E 135°02'213 9.9
2018-Jul-10 12:55N 34°50' E 139°09'611.2
2018-Jul-10 12:21N 34°55' E 139°14'4 9.7
2018-Jul-10 11:54N 34°58' E 139°18'4 8.4
2018-Jul-10 11:26N 34°59' E 139°22'4 8.8
2018-Jul-10 10:59N 35°01' E 139°27'510.1
2018-Jul-10 10:31N 35°03' E 139°32'510.9
2018-Jul-10 10:01N 35°06' E 139°38'511.0
2018-Jul-10 09:31N 35°09' E 139°43'611.0
2018-Jul-10 09:00N 35°14' E 139°46'612.1
2018-Jul-10 08:30N 35°19' E 139°43'611.3
2018-Jul-10 08:01N 35°25' E 139°43'5 9.4
2018-Jul-10 07:31N 35°29' E 139°41'0 0.0
2018-Jul-10 07:01N 35°29' E 139°41'0 0.0
2018-Jul-10 06:30N 35°29' E 139°41'0 0.0
2018-Jul-10 06:00N 35°29' E 139°41'0 0.0
2018-Jul-10 05:30N 35°29' E 139°41'0 0.0
2018-Jul-10 05:01N 35°29' E 139°41'0 0.0
2018-Jul-10 04:31N 35°29' E 139°41'0 0.0
2018-Jul-10 04:00N 35°29' E 139°41'1 1.4
2018-Jul-10 03:31N 35°29' E 139°41'3 5.7
2018-Jul-10 03:00N 35°27' E 139°43'2 4.7
2018-Jul-10 02:29N 35°25' E 139°45'0 0.0
2018-Jul-10 01:59N 35°25' E 139°45'0 0.0
2018-Jul-10 01:29N 35°25' E 139°45'0 0.0
2018-Jul-10 00:56N 35°25' E 139°45'0 0.0
2018-Jul-10 00:26N 35°25' E 139°45'0 0.0
2018-Jul-09 23:56N 35°25' E 139°45'0 0.0
2018-Jul-09 23:26N 35°24' E 139°45'0 0.0
2018-Jul-09 22:59N 35°24' E 139°45'0 0.1
2018-Jul-09 22:29N 35°24' E 139°45'0 0.0
2018-Jul-09 21:53N 35°24' E 139°45'0 0.0
2018-Jul-09 21:29N 35°24' E 139°45'0 0.0
2018-Jul-09 20:59N 35°24' E 139°45'0 0.0
2018-Jul-09 20:23N 35°24' E 139°45'0 0.0
2018-Jul-09 19:59N 35°24' E 139°45'0 0.0
2018-Jul-09 19:29N 35°24' E 139°45'0 0.0
2018-Jul-09 19:00N 35°24' E 139°45'0 0.1
2018-Jul-09 18:30N 35°24' E 139°45'4 7.8
2018-Jul-09 18:00N 35°21' E 139°44'510.7
2018-Jul-09 17:30N 35°16' E 139°46'611.3
2018-Jul-09 17:00N 35°10' E 139°46'611.2
2018-Jul-09 16:30N 35°06' E 139°42'611.9
2018-Jul-09 16:00N 35°02' E 139°37'  
Track history (hours):
 
Tides and Currents Weather Stations Pressure Air Temp Water Temp Dewpoint Dewpoint Depression Visibility Wind Speed Wind Dir Waves Ship Positions

Seiwamaru

Last reported at 2018-Jul-16 04:15 UTC. Time now 2018-Jul-16 04:34 UTC.
Position N 34°55' E 139°14'.

Length 59 m; draft 3.8 m.

Type: Tanker. MMSI: 431100283.

Date/timePositionNaut miles runAvg speedWind from/ knotsBaromVisibWave heightAir tempDewpointWater temp
2018-Jul-16 04:15N 34°55' E 139°14'12 9.8
2018-Jul-16 03:02N 35°01' E 139°26'110.5
2018-Jul-16 02:57N 35°02' E 139°27'4 9.9
2018-Jul-16 02:31N 35°04' E 139°32'510.5
2018-Jul-16 02:00N 35°06' E 139°38'611.5
2018-Jul-16 01:30N 35°09' E 139°43'611.8
2018-Jul-16 01:01N 35°15' E 139°46'612.4
2018-Jul-16 00:31N 35°20' E 139°42'612.3
2018-Jul-16 00:00N 35°26' E 139°43'3 6.9
2018-Jul-15 23:30N 35°29' E 139°41'0 0.0
2018-Jul-15 23:01N 35°29' E 139°41'0 0.0
2018-Jul-15 22:30N 35°29' E 139°41'0 0.0
2018-Jul-15 22:01N 35°29' E 139°41'0 0.0
2018-Jul-15 21:30N 35°29' E 139°41'0 0.0
2018-Jul-15 21:00N 35°29' E 139°41'1 1.6
2018-Jul-15 20:31N 35°29' E 139°41'3 5.4
2018-Jul-15 20:01N 35°27' E 139°43'3 5.1
2018-Jul-15 19:31N 35°25' E 139°45'0 0.0
2018-Jul-15 19:00N 35°25' E 139°45'0 0.0
2018-Jul-15 18:31N 35°25' E 139°45'0 0.0
2018-Jul-15 18:00N 35°25' E 139°45'0 0.0
2018-Jul-15 17:31N 35°25' E 139°45'2 3.7
2018-Jul-15 17:01N 35°23' E 139°45'510.9
2018-Jul-15 16:31N 35°17' E 139°45'611.2
2018-Jul-15 16:00N 35°12' E 139°47'611.6
2018-Jul-15 15:31N 35°07' E 139°44'611.1
2018-Jul-15 15:01N 35°02' E 139°40'612.1
2018-Jul-15 14:30N 34°58' E 139°34'  
2018-Jul-11 18:15N 34°24' E 134°18'511.3
2018-Jul-11 17:48N 34°22' E 134°23'311.2
2018-Jul-11 17:30N 34°20' E 134°27'1410.3
2018-Jul-11 16:11N 34°14' E 134°41'0 1.4
2018-Jul-11 15:58N 34°14' E 134°42'0 0.0
2018-Jul-11 15:26N 34°14' E 134°42'0 0.0
2018-Jul-11 14:59N 34°14' E 134°42'0 0.0
2018-Jul-11 14:24N 34°14' E 134°42'0 0.0
2018-Jul-11 13:49N 34°14' E 134°42'0 0.0
2018-Jul-11 13:21N 34°14' E 134°42'9 6.6
2018-Jul-11 12:02N 34°06' E 134°46'211.6
2018-Jul-11 11:54N 34°05' E 134°47'611.9
2018-Jul-11 11:21N 33°60' E 134°52'411.6
2018-Jul-11 11:00N 33°57' E 134°55'711.4
2018-Jul-11 10:23N 33°52' E 135°02'213 9.9
2018-Jul-10 12:55N 34°50' E 139°09'611.2
2018-Jul-10 12:21N 34°55' E 139°14'4 9.7
2018-Jul-10 11:54N 34°58' E 139°18'4 8.4
2018-Jul-10 11:26N 34°59' E 139°22'4 8.8
2018-Jul-10 10:59N 35°01' E 139°27'510.1
2018-Jul-10 10:31N 35°03' E 139°32'510.9
2018-Jul-10 10:01N 35°06' E 139°38'511.0
2018-Jul-10 09:31N 35°09' E 139°43'611.0
2018-Jul-10 09:00N 35°14' E 139°46'612.1
2018-Jul-10 08:30N 35°19' E 139°43'611.3
2018-Jul-10 08:01N 35°25' E 139°43'5 9.4
2018-Jul-10 07:31N 35°29' E 139°41'0 0.0
2018-Jul-10 07:01N 35°29' E 139°41'0 0.0
2018-Jul-10 06:30N 35°29' E 139°41'0 0.0
2018-Jul-10 06:00N 35°29' E 139°41'0 0.0
2018-Jul-10 05:30N 35°29' E 139°41'0 0.0
2018-Jul-10 05:01N 35°29' E 139°41'0 0.0
2018-Jul-10 04:31N 35°29' E 139°41'0 0.0
2018-Jul-10 04:00N 35°29' E 139°41'1 1.4
2018-Jul-10 03:31N 35°29' E 139°41'3 5.7
2018-Jul-10 03:00N 35°27' E 139°43'2 4.7
2018-Jul-10 02:29N 35°25' E 139°45'0 0.0
2018-Jul-10 01:59N 35°25' E 139°45'0 0.0
2018-Jul-10 01:29N 35°25' E 139°45'0 0.0
2018-Jul-10 00:56N 35°25' E 139°45'0 0.0
2018-Jul-10 00:26N 35°25' E 139°45'0 0.0
2018-Jul-09 23:56N 35°25' E 139°45'0 0.0
2018-Jul-09 23:26N 35°24' E 139°45'0 0.0
2018-Jul-09 22:59N 35°24' E 139°45'0 0.1
2018-Jul-09 22:29N 35°24' E 139°45'0 0.0
2018-Jul-09 21:53N 35°24' E 139°45'0 0.0
2018-Jul-09 21:29N 35°24' E 139°45'0 0.0
2018-Jul-09 20:59N 35°24' E 139°45'0 0.0
2018-Jul-09 20:23N 35°24' E 139°45'0 0.0
2018-Jul-09 19:59N 35°24' E 139°45'0 0.0
2018-Jul-09 19:29N 35°24' E 139°45'0 0.0
2018-Jul-09 19:00N 35°24' E 139°45'0 0.1
2018-Jul-09 18:30N 35°24' E 139°45'4 7.8
2018-Jul-09 18:00N 35°21' E 139°44'510.7
2018-Jul-09 17:30N 35°16' E 139°46'611.3
2018-Jul-09 17:00N 35°10' E 139°46'611.2
2018-Jul-09 16:30N 35°06' E 139°42'611.9
2018-Jul-09 16:00N 35°02' E 139°37'  

Dump ship's entire track history